sensor_id;sensor_type;location;lat;lon;timestamp;P1;durP1;ratioP1;P2;durP2;ratioP2
75246;SDS011;63844;50.042;19.224;2023-01-15T00:01:03;4.10;;;1.10;;
75246;SDS011;63844;50.042;19.224;2023-01-15T00:03:46;3.40;;;1.00;;
75246;SDS011;63844;50.042;19.224;2023-01-15T00:06:17;3.30;;;0.80;;
75246;SDS011;63844;50.042;19.224;2023-01-15T00:08:44;2.70;;;0.70;;
75246;SDS011;63844;50.042;19.224;2023-01-15T00:11:11;2.40;;;0.90;;
75246;SDS011;63844;50.042;19.224;2023-01-15T00:13:38;2.60;;;0.80;;
75246;SDS011;63844;50.042;19.224;2023-01-15T00:16:06;4.60;;;1.00;;
75246;SDS011;63844;50.042;19.224;2023-01-15T00:18:36;4.00;;;1.10;;
75246;SDS011;63844;50.042;19.224;2023-01-15T00:21:03;3.50;;;1.20;;
75246;SDS011;63844;50.042;19.224;2023-01-15T00:23:31;4.80;;;1.10;;
75246;SDS011;63844;50.042;19.224;2023-01-15T00:26:18;1.70;;;0.60;;
75246;SDS011;63844;50.042;19.224;2023-01-15T00:29:05;1.80;;;0.60;;
75246;SDS011;63844;50.042;19.224;2023-01-15T00:31:33;1.70;;;0.60;;
75246;SDS011;63844;50.042;19.224;2023-01-15T00:34:01;2.00;;;0.50;;
75246;SDS011;63844;50.042;19.224;2023-01-15T00:36:28;1.90;;;0.50;;
75246;SDS011;63844;50.042;19.224;2023-01-15T00:38:54;3.70;;;0.90;;
75246;SDS011;63844;50.042;19.224;2023-01-15T00:41:21;2.20;;;0.60;;
75246;SDS011;63844;50.042;19.224;2023-01-15T00:43:48;1.30;;;0.50;;
75246;SDS011;63844;50.042;19.224;2023-01-15T00:46:15;1.90;;;0.70;;
75246;SDS011;63844;50.042;19.224;2023-01-15T00:48:41;2.20;;;0.60;;
75246;SDS011;63844;50.042;19.224;2023-01-15T00:51:08;2.70;;;0.60;;
75246;SDS011;63844;50.042;19.224;2023-01-15T00:53:34;3.50;;;0.80;;
75246;SDS011;63844;50.042;19.224;2023-01-15T00:56:01;1.90;;;0.40;;
75246;SDS011;63844;50.042;19.224;2023-01-15T00:58:27;1.90;;;0.30;;
75246;SDS011;63844;50.042;19.224;2023-01-15T01:00:54;3.20;;;0.50;;
75246;SDS011;63844;50.042;19.224;2023-01-15T01:03:22;2.70;;;0.50;;
75246;SDS011;63844;50.042;19.224;2023-01-15T01:05:49;2.10;;;0.70;;
75246;SDS011;63844;50.042;19.224;2023-01-15T01:08:16;0.90;;;0.20;;
75246;SDS011;63844;50.042;19.224;2023-01-15T01:10:42;3.10;;;0.40;;
75246;SDS011;63844;50.042;19.224;2023-01-15T01:13:09;1.20;;;0.50;;
75246;SDS011;63844;50.042;19.224;2023-01-15T01:15:36;2.70;;;0.70;;
75246;SDS011;63844;50.042;19.224;2023-01-15T01:18:04;3.80;;;1.00;;
75246;SDS011;63844;50.042;19.224;2023-01-15T01:20:31;3.60;;;1.10;;
75246;SDS011;63844;50.042;19.224;2023-01-15T01:22:59;4.60;;;1.50;;
75246;SDS011;63844;50.042;19.224;2023-01-15T01:25:25;3.30;;;0.80;;
75246;SDS011;63844;50.042;19.224;2023-01-15T01:27:52;2.10;;;0.60;;
75246;SDS011;63844;50.042;19.224;2023-01-15T01:30:18;3.20;;;0.80;;
75246;SDS011;63844;50.042;19.224;2023-01-15T01:32:45;2.00;;;0.70;;
75246;SDS011;63844;50.042;19.224;2023-01-15T01:35:12;1.40;;;0.50;;
75246;SDS011;63844;50.042;19.224;2023-01-15T01:37:38;1.90;;;0.70;;
75246;SDS011;63844;50.042;19.224;2023-01-15T01:40:05;1.50;;;0.70;;
75246;SDS011;63844;50.042;19.224;2023-01-15T01:42:31;1.00;;;0.40;;
75246;SDS011;63844;50.042;19.224;2023-01-15T01:45:00;0.90;;;0.40;;
75246;SDS011;63844;50.042;19.224;2023-01-15T01:47:29;2.20;;;0.60;;
75246;SDS011;63844;50.042;19.224;2023-01-15T01:49:59;1.60;;;0.60;;
75246;SDS011;63844;50.042;19.224;2023-01-15T01:52:35;1.00;;;0.30;;
75246;SDS011;63844;50.042;19.224;2023-01-15T01:55:08;0.90;;;0.50;;
75246;SDS011;63844;50.042;19.224;2023-01-15T01:57:37;2.20;;;0.60;;
75246;SDS011;63844;50.042;19.224;2023-01-15T02:00:06;1.40;;;0.60;;
75246;SDS011;63844;50.042;19.224;2023-01-15T02:02:36;2.20;;;0.80;;
75246;SDS011;63844;50.042;19.224;2023-01-15T02:05:04;2.80;;;1.00;;
75246;SDS011;63844;50.042;19.224;2023-01-15T02:07:33;1.40;;;0.40;;
75246;SDS011;63844;50.042;19.224;2023-01-15T02:10:00;2.40;;;1.10;;
75246;SDS011;63844;50.042;19.224;2023-01-15T02:12:27;1.80;;;0.50;;
75246;SDS011;63844;50.042;19.224;2023-01-15T02:17:54;1.80;;;0.70;;
75246;SDS011;63844;50.042;19.224;2023-01-15T02:25:53;2.40;;;0.80;;
75246;SDS011;63844;50.042;19.224;2023-01-15T02:28:23;1.50;;;0.70;;
75246;SDS011;63844;50.042;19.224;2023-01-15T02:30:54;1.70;;;0.60;;
75246;SDS011;63844;50.042;19.224;2023-01-15T02:33:59;2.40;;;0.60;;
75246;SDS011;63844;50.042;19.224;2023-01-15T02:36:32;0.80;;;0.60;;
75246;SDS011;63844;50.042;19.224;2023-01-15T02:39:03;1.60;;;0.50;;
75246;SDS011;63844;50.042;19.224;2023-01-15T02:41:35;1.40;;;0.70;;
75246;SDS011;63844;50.042;19.224;2023-01-15T02:44:07;1.50;;;0.30;;
75246;SDS011;63844;50.042;19.224;2023-01-15T02:46:37;0.80;;;0.30;;
75246;SDS011;63844;50.042;19.224;2023-01-15T02:49:06;1.30;;;0.50;;
75246;SDS011;63844;50.042;19.224;2023-01-15T02:51:37;1.30;;;0.30;;
75246;SDS011;63844;50.042;19.224;2023-01-15T02:54:10;0.80;;;0.50;;
75246;SDS011;63844;50.042;19.224;2023-01-15T02:56:40;3.00;;;0.80;;
75246;SDS011;63844;50.042;19.224;2023-01-15T02:59:12;2.60;;;0.70;;
75246;SDS011;63844;50.042;19.224;2023-01-15T03:01:54;1.00;;;0.40;;
75246;SDS011;63844;50.042;19.224;2023-01-15T03:04:27;1.70;;;0.80;;
75246;SDS011;63844;50.042;19.224;2023-01-15T03:07:08;1.10;;;0.70;;
75246;SDS011;63844;50.042;19.224;2023-01-15T03:09:43;1.50;;;0.50;;
75246;SDS011;63844;50.042;19.224;2023-01-15T03:17:31;2.90;;;1.00;;
75246;SDS011;63844;50.042;19.224;2023-01-15T03:20:05;1.40;;;0.50;;
75246;SDS011;63844;50.042;19.224;2023-01-15T03:22:38;1.00;;;0.40;;
75246;SDS011;63844;50.042;19.224;2023-01-15T03:25:10;2.30;;;0.70;;
75246;SDS011;63844;50.042;19.224;2023-01-15T03:27:41;1.70;;;0.60;;
75246;SDS011;63844;50.042;19.224;2023-01-15T03:30:10;1.20;;;0.50;;
75246;SDS011;63844;50.042;19.224;2023-01-15T03:32:42;1.10;;;0.30;;
75246;SDS011;63844;50.042;19.224;2023-01-15T03:38:07;1.50;;;0.60;;
75246;SDS011;63844;50.042;19.224;2023-01-15T03:40:35;1.10;;;0.40;;
75246;SDS011;63844;50.042;19.224;2023-01-15T03:43:07;1.20;;;0.30;;
75246;SDS011;63844;50.042;19.224;2023-01-15T03:45:59;1.70;;;0.70;;
75246;SDS011;63844;50.042;19.224;2023-01-15T03:48:35;3.00;;;0.60;;
75246;SDS011;63844;50.042;19.224;2023-01-15T03:54:13;1.30;;;0.40;;
75246;SDS011;63844;50.042;19.224;2023-01-15T03:56:51;3.60;;;0.90;;
75246;SDS011;63844;50.042;19.224;2023-01-15T03:59:28;1.70;;;0.60;;
75246;SDS011;63844;50.042;19.224;2023-01-15T04:02:01;1.40;;;0.30;;
75246;SDS011;63844;50.042;19.224;2023-01-15T04:04:31;1.20;;;0.60;;
75246;SDS011;63844;50.042;19.224;2023-01-15T04:06:59;0.90;;;0.40;;
75246;SDS011;63844;50.042;19.224;2023-01-15T04:09:27;2.50;;;0.90;;
75246;SDS011;63844;50.042;19.224;2023-01-15T04:11:57;1.00;;;0.50;;
75246;SDS011;63844;50.042;19.224;2023-01-15T04:14:25;1.80;;;0.80;;
75246;SDS011;63844;50.042;19.224;2023-01-15T04:16:55;1.00;;;0.40;;
75246;SDS011;63844;50.042;19.224;2023-01-15T04:19:21;1.80;;;0.90;;
75246;SDS011;63844;50.042;19.224;2023-01-15T04:21:48;2.20;;;0.90;;
75246;SDS011;63844;50.042;19.224;2023-01-15T04:24:14;2.70;;;0.70;;
75246;SDS011;63844;50.042;19.224;2023-01-15T04:26:41;0.90;;;0.40;;
75246;SDS011;63844;50.042;19.224;2023-01-15T04:29:07;1.90;;;0.70;;
75246;SDS011;63844;50.042;19.224;2023-01-15T04:31:33;1.80;;;0.40;;
75246;SDS011;63844;50.042;19.224;2023-01-15T04:34:02;1.00;;;0.50;;
75246;SDS011;63844;50.042;19.224;2023-01-15T04:36:29;2.20;;;0.60;;
75246;SDS011;63844;50.042;19.224;2023-01-15T04:38:56;1.90;;;0.50;;
75246;SDS011;63844;50.042;19.224;2023-01-15T04:41:25;1.10;;;0.60;;
75246;SDS011;63844;50.042;19.224;2023-01-15T04:44:10;0.80;;;0.40;;
75246;SDS011;63844;50.042;19.224;2023-01-15T04:46:38;1.60;;;0.70;;
75246;SDS011;63844;50.042;19.224;2023-01-15T04:49:07;2.40;;;1.10;;
75246;SDS011;63844;50.042;19.224;2023-01-15T04:51:36;3.20;;;0.70;;
75246;SDS011;63844;50.042;19.224;2023-01-15T04:54:05;1.80;;;0.90;;
75246;SDS011;63844;50.042;19.224;2023-01-15T04:56:39;1.20;;;0.50;;
75246;SDS011;63844;50.042;19.224;2023-01-15T04:59:07;1.40;;;0.60;;
75246;SDS011;63844;50.042;19.224;2023-01-15T05:01:35;1.10;;;0.60;;
75246;SDS011;63844;50.042;19.224;2023-01-15T05:04:02;1.70;;;0.50;;
75246;SDS011;63844;50.042;19.224;2023-01-15T05:06:29;0.90;;;0.50;;
75246;SDS011;63844;50.042;19.224;2023-01-15T05:08:59;2.30;;;0.80;;
75246;SDS011;63844;50.042;19.224;2023-01-15T05:11:26;2.40;;;0.70;;
75246;SDS011;63844;50.042;19.224;2023-01-15T05:13:54;2.30;;;0.70;;
75246;SDS011;63844;50.042;19.224;2023-01-15T05:16:22;1.10;;;0.50;;
75246;SDS011;63844;50.042;19.224;2023-01-15T05:18:51;1.70;;;0.60;;
75246;SDS011;63844;50.042;19.224;2023-01-15T05:21:23;1.90;;;0.70;;
75246;SDS011;63844;50.042;19.224;2023-01-15T05:23:53;2.40;;;0.90;;
75246;SDS011;63844;50.042;19.224;2023-01-15T05:26:21;1.70;;;0.70;;
75246;SDS011;63844;50.042;19.224;2023-01-15T05:28:49;2.60;;;0.70;;
75246;SDS011;63844;50.042;19.224;2023-01-15T05:31:18;1.60;;;0.50;;
75246;SDS011;63844;50.042;19.224;2023-01-15T05:33:46;3.10;;;1.10;;
75246;SDS011;63844;50.042;19.224;2023-01-15T05:36:15;2.80;;;0.90;;
75246;SDS011;63844;50.042;19.224;2023-01-15T05:38:43;1.50;;;0.60;;
75246;SDS011;63844;50.042;19.224;2023-01-15T05:41:10;1.50;;;0.70;;
75246;SDS011;63844;50.042;19.224;2023-01-15T05:44:02;2.30;;;0.70;;
75246;SDS011;63844;50.042;19.224;2023-01-15T05:46:31;1.10;;;0.40;;
75246;SDS011;63844;50.042;19.224;2023-01-15T05:49:03;1.80;;;0.70;;
75246;SDS011;63844;50.042;19.224;2023-01-15T05:51:31;1.50;;;0.60;;
75246;SDS011;63844;50.042;19.224;2023-01-15T05:54:02;1.60;;;0.80;;
75246;SDS011;63844;50.042;19.224;2023-01-15T05:56:29;2.40;;;1.30;;
75246;SDS011;63844;50.042;19.224;2023-01-15T05:58:56;1.50;;;0.90;;
75246;SDS011;63844;50.042;19.224;2023-01-15T06:01:22;3.00;;;1.60;;
75246;SDS011;63844;50.042;19.224;2023-01-15T06:03:49;3.00;;;0.80;;
75246;SDS011;63844;50.042;19.224;2023-01-15T06:06:16;1.20;;;0.70;;
75246;SDS011;63844;50.042;19.224;2023-01-15T06:08:43;2.30;;;0.90;;
75246;SDS011;63844;50.042;19.224;2023-01-15T06:11:11;2.20;;;1.40;;
75246;SDS011;63844;50.042;19.224;2023-01-15T06:13:38;3.60;;;0.60;;
75246;SDS011;63844;50.042;19.224;2023-01-15T06:16:05;1.80;;;0.80;;
75246;SDS011;63844;50.042;19.224;2023-01-15T06:18:36;3.60;;;1.20;;
75246;SDS011;63844;50.042;19.224;2023-01-15T06:21:07;3.20;;;1.40;;
75246;SDS011;63844;50.042;19.224;2023-01-15T06:23:35;2.80;;;0.90;;
75246;SDS011;63844;50.042;19.224;2023-01-15T06:26:03;2.70;;;1.10;;
75246;SDS011;63844;50.042;19.224;2023-01-15T06:28:34;2.00;;;0.80;;
75246;SDS011;63844;50.042;19.224;2023-01-15T06:31:03;1.70;;;0.80;;
75246;SDS011;63844;50.042;19.224;2023-01-15T06:33:31;2.60;;;1.00;;
75246;SDS011;63844;50.042;19.224;2023-01-15T06:35:57;2.40;;;1.00;;
75246;SDS011;63844;50.042;19.224;2023-01-15T06:38:27;2.40;;;1.00;;
75246;SDS011;63844;50.042;19.224;2023-01-15T06:40:53;1.50;;;0.90;;
75246;SDS011;63844;50.042;19.224;2023-01-15T06:43:20;1.80;;;0.80;;
75246;SDS011;63844;50.042;19.224;2023-01-15T06:46:06;1.60;;;0.70;;
75246;SDS011;63844;50.042;19.224;2023-01-15T06:48:53;1.60;;;0.70;;
75246;SDS011;63844;50.042;19.224;2023-01-15T06:51:19;2.20;;;0.90;;
75246;SDS011;63844;50.042;19.224;2023-01-15T06:53:47;2.60;;;0.80;;
75246;SDS011;63844;50.042;19.224;2023-01-15T06:56:13;2.40;;;0.80;;
75246;SDS011;63844;50.042;19.224;2023-01-15T06:58:43;2.60;;;1.00;;
75246;SDS011;63844;50.042;19.224;2023-01-15T07:01:11;3.00;;;1.20;;
75246;SDS011;63844;50.042;19.224;2023-01-15T07:03:39;3.30;;;1.10;;
75246;SDS011;63844;50.042;19.224;2023-01-15T07:06:07;3.60;;;1.20;;
75246;SDS011;63844;50.042;19.224;2023-01-15T07:08:35;2.60;;;1.10;;
75246;SDS011;63844;50.042;19.224;2023-01-15T07:11:03;2.40;;;1.10;;
75246;SDS011;63844;50.042;19.224;2023-01-15T07:13:31;2.90;;;1.20;;
75246;SDS011;63844;50.042;19.224;2023-01-15T07:15:59;2.80;;;0.90;;
75246;SDS011;63844;50.042;19.224;2023-01-15T07:18:27;2.80;;;1.10;;
75246;SDS011;63844;50.042;19.224;2023-01-15T07:20:56;4.20;;;1.50;;
75246;SDS011;63844;50.042;19.224;2023-01-15T07:23:24;5.60;;;1.60;;
75246;SDS011;63844;50.042;19.224;2023-01-15T07:25:52;4.00;;;1.50;;
75246;SDS011;63844;50.042;19.224;2023-01-15T07:28:19;4.20;;;1.30;;
75246;SDS011;63844;50.042;19.224;2023-01-15T07:30:47;4.10;;;1.10;;
75246;SDS011;63844;50.042;19.224;2023-01-15T07:33:14;3.10;;;1.60;;
75246;SDS011;63844;50.042;19.224;2023-01-15T07:35:40;2.40;;;1.10;;
75246;SDS011;63844;50.042;19.224;2023-01-15T07:38:07;3.30;;;1.80;;
75246;SDS011;63844;50.042;19.224;2023-01-15T07:40:34;1.80;;;1.10;;
75246;SDS011;63844;50.042;19.224;2023-01-15T07:43:00;2.80;;;1.00;;
75246;SDS011;63844;50.042;19.224;2023-01-15T07:45:45;3.10;;;1.30;;
75246;SDS011;63844;50.042;19.224;2023-01-15T07:48:31;5.10;;;1.70;;
75246;SDS011;63844;50.042;19.224;2023-01-15T07:51:16;4.10;;;1.90;;
75246;SDS011;63844;50.042;19.224;2023-01-15T07:53:43;4.60;;;2.00;;
75246;SDS011;63844;50.042;19.224;2023-01-15T07:56:09;5.30;;;1.70;;
75246;SDS011;63844;50.042;19.224;2023-01-15T07:58:36;3.90;;;1.60;;
75246;SDS011;63844;50.042;19.224;2023-01-15T08:01:03;6.00;;;1.70;;
75246;SDS011;63844;50.042;19.224;2023-01-15T08:03:29;4.60;;;1.80;;
75246;SDS011;63844;50.042;19.224;2023-01-15T08:05:55;4.10;;;1.30;;
75246;SDS011;63844;50.042;19.224;2023-01-15T08:08:22;4.30;;;1.90;;
75246;SDS011;63844;50.042;19.224;2023-01-15T08:10:48;4.60;;;2.00;;
75246;SDS011;63844;50.042;19.224;2023-01-15T08:13:34;6.10;;;2.10;;
75246;SDS011;63844;50.042;19.224;2023-01-15T08:16:19;6.90;;;2.20;;
75246;SDS011;63844;50.042;19.224;2023-01-15T08:18:46;3.70;;;1.70;;
75246;SDS011;63844;50.042;19.224;2023-01-15T08:21:13;4.40;;;2.00;;
75246;SDS011;63844;50.042;19.224;2023-01-15T08:23:41;6.30;;;2.80;;
75246;SDS011;63844;50.042;19.224;2023-01-15T08:26:08;7.10;;;2.90;;
75246;SDS011;63844;50.042;19.224;2023-01-15T08:28:35;4.80;;;1.90;;
75246;SDS011;63844;50.042;19.224;2023-01-15T08:31:01;4.60;;;1.70;;
75246;SDS011;63844;50.042;19.224;2023-01-15T08:33:30;3.50;;;1.50;;
75246;SDS011;63844;50.042;19.224;2023-01-15T08:35:58;5.70;;;1.90;;
75246;SDS011;63844;50.042;19.224;2023-01-15T08:38:24;4.60;;;1.70;;
75246;SDS011;63844;50.042;19.224;2023-01-15T08:40:53;4.70;;;2.00;;
75246;SDS011;63844;50.042;19.224;2023-01-15T08:43:30;3.80;;;1.70;;
75246;SDS011;63844;50.042;19.224;2023-01-15T08:45:59;5.10;;;1.20;;
75246;SDS011;63844;50.042;19.224;2023-01-15T08:48:28;4.80;;;2.10;;
75246;SDS011;63844;50.042;19.224;2023-01-15T08:50:56;5.30;;;1.60;;
75246;SDS011;63844;50.042;19.224;2023-01-15T08:53:23;4.80;;;1.90;;
75246;SDS011;63844;50.042;19.224;2023-01-15T08:55:50;5.40;;;1.70;;
75246;SDS011;63844;50.042;19.224;2023-01-15T08:58:17;5.40;;;2.00;;
75246;SDS011;63844;50.042;19.224;2023-01-15T09:00:43;6.80;;;2.90;;
75246;SDS011;63844;50.042;19.224;2023-01-15T09:03:10;9.90;;;3.70;;
75246;SDS011;63844;50.042;19.224;2023-01-15T09:05:37;8.50;;;3.60;;
75246;SDS011;63844;50.042;19.224;2023-01-15T09:10:31;5.00;;;1.80;;
75246;SDS011;63844;50.042;19.224;2023-01-15T09:12:59;7.00;;;2.60;;
75246;SDS011;63844;50.042;19.224;2023-01-15T09:15:30;7.20;;;2.70;;
75246;SDS011;63844;50.042;19.224;2023-01-15T09:17:58;5.40;;;1.60;;
75246;SDS011;63844;50.042;19.224;2023-01-15T09:20:25;8.50;;;3.60;;
75246;SDS011;63844;50.042;19.224;2023-01-15T09:22:52;7.60;;;3.10;;
75246;SDS011;63844;50.042;19.224;2023-01-15T09:25:18;4.40;;;1.80;;
75246;SDS011;63844;50.042;19.224;2023-01-15T09:27:49;4.40;;;2.00;;
75246;SDS011;63844;50.042;19.224;2023-01-15T09:32:44;4.30;;;1.90;;
75246;SDS011;63844;50.042;19.224;2023-01-15T09:35:11;3.40;;;1.10;;
75246;SDS011;63844;50.042;19.224;2023-01-15T09:37:37;8.80;;;1.70;;
75246;SDS011;63844;50.042;19.224;2023-01-15T09:40:04;7.70;;;2.80;;
75246;SDS011;63844;50.042;19.224;2023-01-15T09:42:39;3.70;;;1.70;;
75246;SDS011;63844;50.042;19.224;2023-01-15T09:45:21;3.70;;;2.00;;
75246;SDS011;63844;50.042;19.224;2023-01-15T09:48:01;4.00;;;1.60;;
75246;SDS011;63844;50.042;19.224;2023-01-15T09:56:26;3.60;;;1.50;;
75246;SDS011;63844;50.042;19.224;2023-01-15T09:58:55;4.50;;;1.50;;
75246;SDS011;63844;50.042;19.224;2023-01-15T10:01:28;5.60;;;2.50;;
75246;SDS011;63844;50.042;19.224;2023-01-15T10:03:58;4.10;;;2.20;;
75246;SDS011;63844;50.042;19.224;2023-01-15T10:06:50;2.30;;;0.90;;
75246;SDS011;63844;50.042;19.224;2023-01-15T10:09:30;3.40;;;1.10;;
75246;SDS011;63844;50.042;19.224;2023-01-15T10:12:05;3.00;;;1.00;;
75246;SDS011;63844;50.042;19.224;2023-01-15T10:17:40;3.30;;;1.00;;
75246;SDS011;63844;50.042;19.224;2023-01-15T10:20:24;1.70;;;0.90;;
75246;SDS011;63844;50.042;19.224;2023-01-15T10:23:14;2.60;;;1.00;;
75246;SDS011;63844;50.042;19.224;2023-01-15T10:28:57;2.20;;;1.00;;
75246;SDS011;63844;50.042;19.224;2023-01-15T10:36:59;2.50;;;0.70;;
75246;SDS011;63844;50.042;19.224;2023-01-15T10:47:38;1.40;;;0.60;;
75246;SDS011;63844;50.042;19.224;2023-01-15T10:50:14;3.60;;;0.80;;
75246;SDS011;63844;50.042;19.224;2023-01-15T10:52:45;1.30;;;0.60;;
75246;SDS011;63844;50.042;19.224;2023-01-15T10:55:20;2.40;;;0.80;;
75246;SDS011;63844;50.042;19.224;2023-01-15T11:00:59;2.50;;;1.20;;
75246;SDS011;63844;50.042;19.224;2023-01-15T11:03:34;2.30;;;1.30;;
75246;SDS011;63844;50.042;19.224;2023-01-15T11:06:04;2.60;;;1.20;;
75246;SDS011;63844;50.042;19.224;2023-01-15T11:08:33;1.70;;;0.90;;
75246;SDS011;63844;50.042;19.224;2023-01-15T11:12:05;1.20;;;0.50;;
75246;SDS011;63844;50.042;19.224;2023-01-15T11:14:40;2.30;;;1.00;;
75246;SDS011;63844;50.042;19.224;2023-01-15T11:17:28;2.60;;;1.00;;
75246;SDS011;63844;50.042;19.224;2023-01-15T11:20:29;2.70;;;1.40;;
75246;SDS011;63844;50.042;19.224;2023-01-15T11:23:07;3.70;;;1.50;;
75246;SDS011;63844;50.042;19.224;2023-01-15T11:25:52;3.10;;;1.40;;
75246;SDS011;63844;50.042;19.224;2023-01-15T11:31:00;5.30;;;1.00;;
75246;SDS011;63844;50.042;19.224;2023-01-15T11:33:28;2.80;;;0.90;;
75246;SDS011;63844;50.042;19.224;2023-01-15T11:36:00;2.40;;;1.50;;
75246;SDS011;63844;50.042;19.224;2023-01-15T11:41:21;2.00;;;1.00;;
75246;SDS011;63844;50.042;19.224;2023-01-15T11:44:15;1.90;;;1.00;;
75246;SDS011;63844;50.042;19.224;2023-01-15T11:47:02;2.00;;;0.50;;
75246;SDS011;63844;50.042;19.224;2023-01-15T11:49:52;2.90;;;0.90;;
75246;SDS011;63844;50.042;19.224;2023-01-15T11:52:49;2.70;;;0.90;;
75246;SDS011;63844;50.042;19.224;2023-01-15T11:55:21;1.70;;;0.90;;
75246;SDS011;63844;50.042;19.224;2023-01-15T11:57:54;2.90;;;2.00;;
75246;SDS011;63844;50.042;19.224;2023-01-15T12:00:23;2.90;;;1.60;;
75246;SDS011;63844;50.042;19.224;2023-01-15T12:02:53;3.10;;;1.30;;
75246;SDS011;63844;50.042;19.224;2023-01-15T12:05:27;2.70;;;1.30;;
75246;SDS011;63844;50.042;19.224;2023-01-15T12:07:57;3.20;;;1.00;;
75246;SDS011;63844;50.042;19.224;2023-01-15T12:10:28;2.80;;;0.90;;
75246;SDS011;63844;50.042;19.224;2023-01-15T12:13:31;3.00;;;1.40;;
75246;SDS011;63844;50.042;19.224;2023-01-15T12:16:13;3.30;;;1.20;;
75246;SDS011;63844;50.042;19.224;2023-01-15T12:24:11;3.70;;;1.70;;
75246;SDS011;63844;50.042;19.224;2023-01-15T12:32:17;5.80;;;2.50;;
75246;SDS011;63844;50.042;19.224;2023-01-15T12:34:49;5.20;;;2.30;;
75246;SDS011;63844;50.042;19.224;2023-01-15T12:37:24;5.10;;;2.50;;
75246;SDS011;63844;50.042;19.224;2023-01-15T12:39:59;5.70;;;2.10;;
75246;SDS011;63844;50.042;19.224;2023-01-15T12:42:47;7.60;;;2.50;;
75246;SDS011;63844;50.042;19.224;2023-01-15T12:45:37;5.10;;;2.00;;
75246;SDS011;63844;50.042;19.224;2023-01-15T12:48:13;3.40;;;1.90;;
75246;SDS011;63844;50.042;19.224;2023-01-15T12:50:58;3.90;;;1.60;;
75246;SDS011;63844;50.042;19.224;2023-01-15T12:53:38;2.40;;;1.20;;
75246;SDS011;63844;50.042;19.224;2023-01-15T12:56:18;4.20;;;1.30;;
75246;SDS011;63844;50.042;19.224;2023-01-15T12:59:05;4.10;;;1.30;;
75246;SDS011;63844;50.042;19.224;2023-01-15T13:04:29;5.60;;;2.20;;
75246;SDS011;63844;50.042;19.224;2023-01-15T13:07:10;4.80;;;1.40;;
75246;SDS011;63844;50.042;19.224;2023-01-15T13:09:47;3.70;;;1.60;;
75246;SDS011;63844;50.042;19.224;2023-01-15T13:12:20;3.00;;;1.40;;
75246;SDS011;63844;50.042;19.224;2023-01-15T13:14:47;3.20;;;1.40;;
75246;SDS011;63844;50.042;19.224;2023-01-15T13:17:24;4.50;;;1.30;;
75246;SDS011;63844;50.042;19.224;2023-01-15T13:22:53;2.20;;;0.90;;
75246;SDS011;63844;50.042;19.224;2023-01-15T13:26:01;3.10;;;1.40;;
75246;SDS011;63844;50.042;19.224;2023-01-15T13:31:33;2.90;;;1.20;;
75246;SDS011;63844;50.042;19.224;2023-01-15T13:34:01;3.10;;;1.00;;
75246;SDS011;63844;50.042;19.224;2023-01-15T13:36:39;2.20;;;0.90;;
75246;SDS011;63844;50.042;19.224;2023-01-15T13:39:11;2.70;;;1.00;;
75246;SDS011;63844;50.042;19.224;2023-01-15T13:41:50;2.80;;;0.80;;
75246;SDS011;63844;50.042;19.224;2023-01-15T13:44:38;4.60;;;1.50;;
75246;SDS011;63844;50.042;19.224;2023-01-15T13:47:13;4.00;;;2.00;;
75246;SDS011;63844;50.042;19.224;2023-01-15T13:49:54;3.60;;;1.90;;
75246;SDS011;63844;50.042;19.224;2023-01-15T13:52:28;2.50;;;1.30;;
75246;SDS011;63844;50.042;19.224;2023-01-15T13:55:25;3.40;;;1.40;;
75246;SDS011;63844;50.042;19.224;2023-01-15T14:00:35;2.60;;;0.70;;
75246;SDS011;63844;50.042;19.224;2023-01-15T14:03:23;3.70;;;1.70;;
75246;SDS011;63844;50.042;19.224;2023-01-15T14:05:56;1.60;;;0.70;;
75246;SDS011;63844;50.042;19.224;2023-01-15T14:08:28;3.20;;;1.20;;
75246;SDS011;63844;50.042;19.224;2023-01-15T14:11:02;2.10;;;1.10;;
75246;SDS011;63844;50.042;19.224;2023-01-15T14:13:35;3.00;;;1.30;;
75246;SDS011;63844;50.042;19.224;2023-01-15T14:22:02;4.60;;;1.70;;
75246;SDS011;63844;50.042;19.224;2023-01-15T14:24:46;3.90;;;1.80;;
75246;SDS011;63844;50.042;19.224;2023-01-15T14:30:49;5.00;;;1.80;;
75246;SDS011;63844;50.042;19.224;2023-01-15T14:36:18;7.90;;;3.90;;
75246;SDS011;63844;50.042;19.224;2023-01-15T14:38:58;4.00;;;2.00;;
75246;SDS011;63844;50.042;19.224;2023-01-15T14:41:30;3.70;;;1.50;;
75246;SDS011;63844;50.042;19.224;2023-01-15T14:44:27;5.20;;;2.40;;
75246;SDS011;63844;50.042;19.224;2023-01-15T14:46:58;5.20;;;2.50;;
75246;SDS011;63844;50.042;19.224;2023-01-15T14:49:30;5.20;;;1.70;;
75246;SDS011;63844;50.042;19.224;2023-01-15T14:52:07;4.50;;;2.10;;
75246;SDS011;63844;50.042;19.224;2023-01-15T14:54:34;7.80;;;2.10;;
75246;SDS011;63844;50.042;19.224;2023-01-15T14:57:05;4.70;;;2.60;;
75246;SDS011;63844;50.042;19.224;2023-01-15T15:02:40;5.20;;;1.90;;
75246;SDS011;63844;50.042;19.224;2023-01-15T15:07:44;5.70;;;2.30;;
75246;SDS011;63844;50.042;19.224;2023-01-15T15:18:56;3.60;;;1.60;;
75246;SDS011;63844;50.042;19.224;2023-01-15T15:21:44;3.80;;;2.10;;
75246;SDS011;63844;50.042;19.224;2023-01-15T15:24:30;5.40;;;2.80;;
75246;SDS011;63844;50.042;19.224;2023-01-15T15:27:16;5.40;;;2.00;;
75246;SDS011;63844;50.042;19.224;2023-01-15T15:29:44;3.60;;;1.70;;
75246;SDS011;63844;50.042;19.224;2023-01-15T15:32:18;2.70;;;0.70;;
75246;SDS011;63844;50.042;19.224;2023-01-15T15:34:48;3.40;;;1.80;;
75246;SDS011;63844;50.042;19.224;2023-01-15T15:37:17;4.10;;;1.40;;
75246;SDS011;63844;50.042;19.224;2023-01-15T15:40:09;5.80;;;2.40;;
75246;SDS011;63844;50.042;19.224;2023-01-15T15:46:04;4.10;;;2.10;;
75246;SDS011;63844;50.042;19.224;2023-01-15T15:48:50;3.20;;;1.80;;
75246;SDS011;63844;50.042;19.224;2023-01-15T15:54:03;6.60;;;3.10;;
75246;SDS011;63844;50.042;19.224;2023-01-15T15:56:39;3.30;;;1.80;;
75246;SDS011;63844;50.042;19.224;2023-01-15T15:59:30;5.20;;;2.60;;
75246;SDS011;63844;50.042;19.224;2023-01-15T16:01:59;5.30;;;2.20;;
75246;SDS011;63844;50.042;19.224;2023-01-15T16:04:47;7.30;;;2.80;;
75246;SDS011;63844;50.042;19.224;2023-01-15T16:07:24;7.10;;;2.60;;
75246;SDS011;63844;50.042;19.224;2023-01-15T16:09:55;6.20;;;2.60;;
75246;SDS011;63844;50.042;19.224;2023-01-15T16:12:25;29.30;;;12.00;;
75246;SDS011;63844;50.042;19.224;2023-01-15T16:14:56;13.90;;;6.40;;
75246;SDS011;63844;50.042;19.224;2023-01-15T16:17:24;10.80;;;5.70;;
75246;SDS011;63844;50.042;19.224;2023-01-15T16:19:53;5.20;;;2.60;;
75246;SDS011;63844;50.042;19.224;2023-01-15T16:22:21;6.10;;;2.70;;
75246;SDS011;63844;50.042;19.224;2023-01-15T16:24:53;4.70;;;1.90;;
75246;SDS011;63844;50.042;19.224;2023-01-15T16:27:21;5.90;;;2.70;;
75246;SDS011;63844;50.042;19.224;2023-01-15T16:29:51;8.80;;;4.40;;
75246;SDS011;63844;50.042;19.224;2023-01-15T16:32:21;4.90;;;3.10;;
75246;SDS011;63844;50.042;19.224;2023-01-15T16:35:03;5.30;;;3.10;;
75246;SDS011;63844;50.042;19.224;2023-01-15T16:37:32;7.80;;;4.10;;
75246;SDS011;63844;50.042;19.224;2023-01-15T16:40:01;6.90;;;4.10;;
75246;SDS011;63844;50.042;19.224;2023-01-15T16:42:37;5.50;;;3.20;;
75246;SDS011;63844;50.042;19.224;2023-01-15T16:45:27;11.90;;;5.50;;
75246;SDS011;63844;50.042;19.224;2023-01-15T16:50:38;11.80;;;5.90;;
75246;SDS011;63844;50.042;19.224;2023-01-15T16:53:27;9.90;;;5.60;;
75246;SDS011;63844;50.042;19.224;2023-01-15T16:55:56;10.40;;;4.80;;
75246;SDS011;63844;50.042;19.224;2023-01-15T16:58:35;10.50;;;5.00;;
75246;SDS011;63844;50.042;19.224;2023-01-15T17:01:21;6.70;;;3.40;;